createdAt,value
2022-10-18T00:01:50.778Z,18.42
2022-10-18T00:07:22.548Z,18.37
2022-10-18T00:12:54.202Z,18.41
2022-10-18T00:18:25.925Z,18.34
2022-10-18T00:23:57.693Z,18.18
2022-10-18T00:29:29.370Z,18.22
2022-10-18T00:35:01.117Z,18.13
2022-10-18T00:40:32.841Z,18.11
2022-10-18T00:46:04.565Z,18.08
2022-10-18T00:51:36.293Z,17.85
2022-10-18T00:57:08.012Z,17.77
2022-10-18T01:02:46.157Z,17.83
2022-10-18T01:08:18.415Z,17.88
2022-10-18T01:13:49.604Z,17.92
2022-10-18T01:19:21.270Z,17.87
2022-10-18T01:24:53.096Z,17.92
2022-10-18T01:30:24.934Z,17.84
2022-10-18T01:35:57.730Z,17.91
2022-10-18T01:41:28.234Z,17.94
2022-10-18T01:47:00.028Z,17.9
2022-10-18T01:52:31.877Z,17.99
2022-10-18T01:58:03.416Z,17.82
2022-10-18T02:03:41.501Z,17.71
2022-10-18T02:09:13.241Z,17.84
2022-10-18T02:14:44.969Z,17.8
2022-10-18T02:20:16.678Z,17.66
2022-10-18T02:25:48.433Z,17.72
2022-10-18T02:31:20.213Z,17.65
2022-10-18T02:36:51.866Z,17.6
2022-10-18T02:42:23.618Z,17.68
2022-10-18T02:47:55.396Z,17.61
2022-10-18T02:53:27.013Z,17.62
2022-10-18T02:58:58.777Z,17.68
2022-10-18T03:04:34.866Z,17.58
2022-10-18T03:10:06.601Z,17.52
2022-10-18T03:15:38.329Z,17.58
2022-10-18T03:21:10.067Z,17.77
2022-10-18T03:26:41.782Z,17.69
2022-10-18T03:32:13.489Z,17.81
2022-10-18T03:37:45.200Z,17.79
2022-10-18T03:43:16.981Z,17.79
2022-10-18T03:48:48.635Z,17.75
2022-10-18T03:54:20.387Z,17.74
2022-10-18T03:59:52.361Z,17.59
2022-10-18T04:05:28.263Z,17.6
2022-10-18T04:10:59.974Z,17.66
2022-10-18T04:16:31.692Z,17.62
2022-10-18T04:22:03.410Z,17.63
2022-10-18T04:27:35.212Z,17.43
2022-10-18T04:33:06.854Z,17.71
2022-10-18T04:38:38.541Z,18.0
2022-10-18T04:44:10.241Z,18.06
2022-10-18T04:49:42.056Z,18.14
2022-10-18T04:55:13.970Z,18.24
2022-10-18T05:00:45.448Z,18.15
2022-10-18T05:06:23.549Z,18.04
2022-10-18T05:11:55.299Z,17.94
2022-10-18T05:17:27.017Z,17.96
2022-10-18T05:22:58.757Z,17.77
2022-10-18T05:28:39.946Z,17.77
2022-10-18T05:34:02.201Z,17.78
2022-10-18T05:39:33.917Z,17.68
2022-10-18T05:45:05.630Z,17.66
2022-10-18T05:50:39.501Z,17.71
2022-10-18T05:56:09.286Z,17.66
2022-10-18T06:01:40.868Z,17.67
2022-10-18T06:07:17.238Z,17.51
2022-10-18T06:12:48.757Z,17.56
2022-10-18T06:18:20.514Z,17.43
2022-10-18T06:23:52.230Z,17.66
2022-10-18T06:29:23.923Z,17.8
2022-10-18T06:34:55.665Z,17.95
2022-10-18T06:40:27.362Z,18.18
2022-10-18T06:45:59.117Z,18.23
2022-10-18T06:51:30.865Z,18.35
2022-10-18T06:57:02.505Z,18.33
2022-10-18T07:02:34.484Z,18.55
2022-10-18T07:08:12.814Z,18.68
2022-10-18T07:13:44.110Z,18.63
2022-10-18T07:19:15.838Z,18.55
2022-10-18T07:24:47.566Z,18.63
2022-10-18T07:30:19.287Z,18.7
2022-10-18T07:35:51.103Z,18.72
2022-10-18T07:41:22.723Z,19.0
2022-10-18T07:46:54.495Z,18.94
2022-10-18T07:52:26.155Z,19.01
2022-10-18T07:57:57.891Z,19.13
2022-10-18T08:03:29.748Z,19.22
2022-10-18T08:09:07.723Z,19.18
2022-10-18T08:14:39.422Z,19.22
2022-10-18T08:20:11.964Z,19.16
2022-10-18T08:25:42.960Z,19.23
2022-10-18T08:31:14.640Z,19.47
2022-10-18T08:36:46.276Z,19.42
2022-10-18T08:42:18.021Z,19.72
2022-10-18T08:47:49.795Z,19.6
2022-10-18T08:53:21.497Z,19.84
2022-10-18T08:58:53.445Z,19.89
2022-10-18T09:04:24.900Z,20.12
2022-10-18T09:10:01.034Z,20.0
2022-10-18T09:15:32.757Z,19.83
2022-10-18T09:21:04.491Z,19.55
2022-10-18T09:26:36.229Z,19.79
2022-10-18T09:32:07.949Z,19.25
2022-10-18T09:37:39.756Z,18.92
2022-10-18T09:43:11.397Z,19.61
2022-10-18T09:48:43.128Z,19.4
2022-10-18T09:54:14.924Z,19.71
2022-10-18T09:59:46.529Z,20.28
2022-10-18T10:05:18.316Z,20.93
2022-10-18T10:10:54.381Z,20.49
2022-10-18T10:16:26.193Z,21.05
2022-10-18T10:21:57.849Z,21.36
2022-10-18T10:27:29.845Z,21.48
2022-10-18T10:33:01.284Z,21.73
2022-10-18T10:38:33.021Z,21.94
2022-10-18T10:44:04.775Z,22.15
2022-10-18T10:49:40.018Z,22.49
2022-10-18T10:55:30.677Z,22.44
2022-10-18T11:00:39.926Z,22.63
2022-10-18T11:06:11.682Z,22.49
2022-10-18T11:11:47.734Z,22.49
2022-10-18T11:17:19.449Z,23.02
2022-10-18T11:22:51.183Z,22.68
2022-10-18T11:28:23.162Z,22.81
2022-10-18T11:34:08.517Z,22.79
2022-10-18T11:39:26.822Z,22.09
2022-10-18T11:44:58.087Z,21.87
2022-10-18T11:50:29.752Z,21.69
2022-10-18T11:56:01.512Z,21.74
2022-10-18T12:01:33.234Z,22.21
2022-10-18T12:07:04.961Z,22.63
2022-10-18T12:12:43.025Z,22.55
2022-10-18T12:18:15.262Z,22.34
2022-10-18T12:23:46.511Z,22.63
2022-10-18T12:29:18.234Z,22.41
2022-10-18T12:34:50.758Z,22.48
2022-10-18T12:40:21.788Z,21.95
2022-10-18T12:45:53.423Z,21.84
2022-10-18T12:51:25.434Z,22.2
2022-10-18T12:56:56.886Z,22.45
2022-10-18T13:02:28.587Z,22.59
2022-10-18T13:08:00.329Z,22.47
2022-10-18T13:13:39.955Z,22.69
2022-10-18T13:19:08.122Z,22.8
2022-10-18T13:24:39.877Z,22.33
2022-10-18T13:30:11.717Z,22.46
2022-10-18T13:35:43.338Z,22.47
2022-10-18T13:41:15.111Z,22.29
2022-10-18T13:46:47.442Z,22.16
2022-10-18T13:52:19.898Z,21.93
2022-10-18T13:57:51.570Z,22.07
2022-10-18T14:03:44.326Z,21.91
2022-10-18T14:08:55.019Z,22.16
2022-10-18T14:14:31.119Z,22.21
2022-10-18T14:20:02.884Z,22.02
2022-10-18T14:25:34.683Z,22.08
2022-10-18T14:31:06.338Z,21.89
2022-10-18T14:36:38.235Z,21.83
2022-10-18T14:42:09.907Z,21.44
2022-10-18T14:47:42.609Z,21.56
2022-10-18T14:53:14.320Z,21.24
2022-10-18T14:58:46.045Z,21.19
2022-10-18T15:04:17.753Z,20.99
2022-10-18T15:09:49.489Z,21.21
2022-10-18T15:15:25.610Z,21.11
2022-10-18T15:20:57.351Z,20.88
2022-10-18T15:26:29.087Z,20.75
2022-10-18T15:32:00.786Z,20.87
2022-10-18T15:37:32.652Z,20.99
2022-10-18T15:43:04.374Z,20.81
2022-10-18T15:48:36.075Z,21.21
2022-10-18T15:54:08.041Z,21.2
2022-10-18T15:59:39.601Z,20.92
2022-10-18T16:05:11.309Z,20.81
2022-10-18T16:10:43.068Z,21.11
2022-10-18T16:16:19.169Z,20.91
2022-10-18T16:21:50.942Z,20.86
2022-10-18T16:27:22.541Z,20.78
2022-10-18T16:32:54.330Z,21.0
2022-10-18T16:38:27.229Z,21.0
2022-10-18T16:43:57.731Z,20.91
2022-10-18T16:49:29.522Z,20.8
2022-10-18T16:55:01.191Z,20.67
2022-10-18T17:00:32.944Z,20.7
2022-10-18T17:06:04.749Z,20.64
2022-10-18T17:11:36.498Z,20.37
2022-10-18T17:17:12.529Z,20.33
2022-10-18T17:22:44.313Z,20.24
2022-10-18T17:28:16.029Z,20.12
2022-10-18T17:33:47.756Z,19.99
2022-10-18T17:39:19.597Z,19.81
2022-10-18T17:44:53.034Z,19.63
2022-10-18T17:50:22.905Z,19.44
2022-10-18T17:55:54.621Z,19.41
2022-10-18T18:01:26.349Z,19.32
2022-10-18T18:06:59.009Z,19.42
2022-10-18T18:12:30.975Z,19.47
2022-10-18T18:18:07.693Z,19.52
2022-10-18T18:23:39.691Z,19.51
2022-10-18T18:29:11.138Z,19.44
2022-10-18T18:34:42.837Z,19.27
2022-10-18T18:40:14.574Z,19.14
2022-10-18T18:45:46.379Z,18.97
2022-10-18T18:51:17.979Z,18.82
2022-10-18T18:56:49.781Z,18.77
2022-10-18T19:02:21.493Z,18.75
2022-10-18T19:07:53.242Z,18.59
2022-10-18T19:13:24.893Z,18.48
2022-10-18T19:19:03.173Z,18.42
2022-10-18T19:24:34.925Z,18.33
2022-10-18T19:30:06.675Z,18.23
2022-10-18T19:35:38.332Z,18.18
2022-10-18T19:41:10.021Z,18.11
2022-10-18T19:46:41.800Z,18.06
2022-10-18T19:52:13.511Z,17.98
2022-10-18T19:57:45.250Z,17.92
2022-10-18T20:03:17.018Z,17.89
2022-10-18T20:08:48.834Z,17.8
2022-10-18T20:14:20.570Z,17.83
2022-10-18T20:19:56.648Z,17.86
2022-10-18T20:25:28.354Z,17.92
2022-10-18T20:31:00.140Z,17.84
2022-10-18T20:36:31.860Z,17.84
2022-10-18T20:42:03.530Z,17.72
2022-10-18T20:47:35.546Z,17.61
2022-10-18T20:53:06.969Z,17.55
2022-10-18T20:58:38.694Z,17.45
2022-10-18T21:04:10.770Z,17.58
2022-10-18T21:09:42.173Z,17.55
2022-10-18T21:15:13.885Z,17.52
2022-10-18T21:20:50.049Z,17.56
2022-10-18T21:26:21.773Z,17.39
2022-10-18T21:31:53.512Z,17.39
2022-10-18T21:37:25.246Z,17.4
2022-10-18T21:42:56.919Z,17.33
2022-10-18T21:48:28.630Z,17.17
2022-10-18T21:54:00.429Z,17.22
2022-10-18T21:59:32.141Z,17.1
2022-10-18T22:05:06.052Z,17.02
2022-10-18T22:10:35.762Z,17.06
2022-10-18T22:16:07.330Z,16.84
2022-10-18T22:21:43.431Z,16.9
2022-10-18T22:27:15.149Z,16.89
2022-10-18T22:32:47.058Z,16.98
2022-10-18T22:38:18.602Z,17.0
2022-10-18T22:43:50.313Z,16.98
2022-10-18T22:49:22.034Z,17.01
2022-10-18T22:54:53.801Z,16.95
2022-10-18T23:00:25.525Z,16.83
2022-10-18T23:05:57.262Z,16.83
2022-10-18T23:11:28.966Z,16.76
2022-10-18T23:17:00.754Z,16.71
2022-10-18T23:22:36.855Z,16.71
2022-10-18T23:28:08.571Z,16.72
2022-10-18T23:33:40.300Z,16.65
2022-10-18T23:39:12.064Z,16.6
2022-10-18T23:44:43.840Z,16.61
2022-10-18T23:50:15.623Z,16.48
2022-10-18T23:55:47.361Z,16.37
